createdAt,value
2023-02-19T00:00:31.840Z,31.30
2023-02-19T00:01:31.826Z,28.60
2023-02-19T00:02:31.816Z,32.00
2023-02-19T00:03:31.847Z,30.30
2023-02-19T00:04:31.815Z,29.80
2023-02-19T00:05:31.751Z,32.30
2023-02-19T00:06:31.771Z,30.20
2023-02-19T00:07:31.744Z,29.50
2023-02-19T00:08:31.726Z,28.30
2023-02-19T00:09:31.741Z,28.20
2023-02-19T00:10:31.684Z,30.70
2023-02-19T00:11:31.708Z,28.90
2023-02-19T00:12:31.653Z,27.00
2023-02-19T00:13:31.631Z,28.20
2023-02-19T00:14:31.658Z,31.70
2023-02-19T00:15:31.668Z,26.90
2023-02-19T00:16:31.587Z,31.60
2023-02-19T00:17:31.588Z,27.10
2023-02-19T00:18:31.605Z,29.50
2023-02-19T00:19:31.573Z,28.30
2023-02-19T00:20:31.538Z,29.20
2023-02-19T00:21:31.573Z,28.20
2023-02-19T00:22:31.508Z,34.20
2023-02-19T00:23:33.136Z,30.50
2023-02-19T00:24:41.328Z,32.00
2023-02-19T00:25:31.494Z,29.80
2023-02-19T00:26:31.445Z,30.80
2023-02-19T00:27:31.412Z,32.00
2023-02-19T00:28:31.414Z,28.40
2023-02-19T00:29:31.415Z,33.90
2023-02-19T00:30:31.419Z,34.70
2023-02-19T00:31:33.002Z,36.50
2023-02-19T00:32:31.367Z,31.70
2023-02-19T00:33:31.340Z,34.90
2023-02-19T00:34:31.345Z,36.00
2023-02-19T00:35:31.375Z,42.90
2023-02-19T00:36:31.362Z,33.30
2023-02-19T00:37:31.291Z,35.10
2023-02-19T00:38:31.281Z,32.00
2023-02-19T00:39:31.281Z,32.90
2023-02-19T00:40:31.281Z,36.20
2023-02-19T00:41:31.264Z,31.90
2023-02-19T00:42:31.268Z,40.50
2023-02-19T00:43:31.214Z,37.00
2023-02-19T00:44:31.221Z,32.10
2023-02-19T00:45:31.184Z,40.50
2023-02-19T00:46:31.205Z,34.50
2023-02-19T00:47:31.189Z,30.00
2023-02-19T00:48:31.176Z,45.00
2023-02-19T00:49:31.122Z,37.90
2023-02-19T00:50:31.155Z,46.00
2023-02-19T00:51:31.107Z,39.60
2023-02-19T00:52:31.090Z,40.00
2023-02-19T00:53:31.104Z,34.80
2023-02-19T00:54:31.082Z,39.80
2023-02-19T00:55:31.036Z,49.40
2023-02-19T00:56:31.095Z,45.80
2023-02-19T00:57:31.039Z,37.90
2023-02-19T00:58:31.004Z,36.10
2023-02-19T00:59:31.012Z,40.00
2023-02-19T01:00:30.981Z,41.90
2023-02-19T01:01:30.977Z,33.80
2023-02-19T01:02:30.960Z,37.50
2023-02-19T01:03:30.960Z,40.90
2023-02-19T01:04:30.974Z,39.50
2023-02-19T01:05:30.909Z,41.70
2023-02-19T01:06:30.904Z,41.40
2023-02-19T01:07:30.888Z,38.10
2023-02-19T01:08:30.880Z,40.30
2023-02-19T01:09:30.849Z,36.40
2023-02-19T01:10:30.866Z,40.40
2023-02-19T01:11:30.823Z,36.40
2023-02-19T01:12:30.818Z,38.30
2023-02-19T01:13:30.852Z,38.40
2023-02-19T01:14:30.834Z,39.10
2023-02-19T01:15:30.766Z,36.00
2023-02-19T01:16:30.779Z,42.90
2023-02-19T01:17:30.763Z,38.30
2023-02-19T01:18:30.748Z,46.60
2023-02-19T01:19:30.710Z,38.60
2023-02-19T01:20:30.712Z,43.90
2023-02-19T01:21:30.728Z,46.40
2023-02-19T01:22:30.668Z,39.70
2023-02-19T01:23:30.693Z,36.50
2023-02-19T01:24:30.635Z,51.50
2023-02-19T01:25:30.640Z,43.00
2023-02-19T01:26:30.634Z,40.50
2023-02-19T01:27:30.611Z,42.80
2023-02-19T01:28:30.614Z,39.70
2023-02-19T01:29:30.588Z,43.90
2023-02-19T01:30:30.581Z,43.10
2023-02-19T01:31:30.619Z,41.30
2023-02-19T01:32:30.563Z,44.60
2023-02-19T01:33:30.523Z,37.40
2023-02-19T01:34:30.525Z,55.00
2023-02-19T01:35:30.506Z,40.10
2023-02-19T01:36:30.498Z,43.90
2023-02-19T01:37:30.468Z,41.30
2023-02-19T01:38:30.444Z,38.90
2023-02-19T01:39:30.446Z,44.30
2023-02-19T01:40:30.444Z,38.20
2023-02-19T01:41:30.413Z,39.00
2023-02-19T01:42:30.441Z,46.10
2023-02-19T01:43:30.390Z,40.50
2023-02-19T01:44:30.440Z,41.80
2023-02-19T01:45:30.366Z,43.80
2023-02-19T01:46:30.398Z,38.60
2023-02-19T01:47:30.342Z,45.60
2023-02-19T01:48:30.312Z,51.80
2023-02-19T01:49:30.328Z,42.20
2023-02-19T01:50:30.288Z,41.20
2023-02-19T01:51:30.299Z,41.30
2023-02-19T01:52:30.278Z,38.60
2023-02-19T01:53:30.242Z,40.70
2023-02-19T01:54:37.918Z,39.00
2023-02-19T01:55:30.224Z,36.80
2023-02-19T01:56:37.725Z,42.60
2023-02-19T01:57:38.934Z,39.80
2023-02-19T01:58:37.708Z,52.30
2023-02-19T01:59:37.786Z,38.70
2023-02-19T02:00:30.163Z,40.30
2023-02-19T02:01:37.684Z,40.60
2023-02-19T02:02:30.160Z,42.30
2023-02-19T02:03:30.137Z,49.90
2023-02-19T02:04:30.091Z,47.00
2023-02-19T02:05:30.116Z,54.20
2023-02-19T02:06:30.097Z,44.50
2023-02-19T02:07:30.071Z,44.90
2023-02-19T02:08:30.060Z,43.40
2023-02-19T02:09:30.077Z,46.00
2023-02-19T02:10:30.026Z,40.70
2023-02-19T02:11:30.046Z,45.90
2023-02-19T02:12:30.004Z,42.80
2023-02-19T02:13:30.001Z,43.70
2023-02-19T02:14:29.998Z,43.60
2023-02-19T02:15:29.967Z,41.90
2023-02-19T02:16:29.972Z,39.90
2023-02-19T02:17:29.942Z,42.00
2023-02-19T02:18:29.922Z,43.70
2023-02-19T02:19:29.926Z,41.50
2023-02-19T02:20:29.883Z,40.30
2023-02-19T02:21:29.895Z,37.80
2023-02-19T02:22:29.875Z,38.90
2023-02-19T02:23:29.852Z,39.70
2023-02-19T02:24:29.833Z,40.00
2023-02-19T02:25:29.831Z,38.00
2023-02-19T02:26:29.817Z,40.90
2023-02-19T02:27:29.813Z,36.50
2023-02-19T02:28:29.781Z,39.70
2023-02-19T02:29:29.772Z,34.70
2023-02-19T02:30:29.822Z,36.80
2023-02-19T02:31:29.823Z,41.10
2023-02-19T02:32:29.730Z,44.20
2023-02-19T02:33:29.711Z,43.30
2023-02-19T02:34:29.702Z,49.60
2023-02-19T02:35:29.687Z,41.90
2023-02-19T02:36:29.664Z,45.50
2023-02-19T02:37:29.671Z,45.30
2023-02-19T02:38:29.669Z,43.30
2023-02-19T02:39:29.637Z,41.70
2023-02-19T02:40:29.619Z,44.80
2023-02-19T02:41:29.621Z,40.80
2023-02-19T02:42:29.649Z,42.20
2023-02-19T02:43:29.579Z,41.40
2023-02-19T02:44:29.560Z,44.30
2023-02-19T02:45:29.614Z,40.80
2023-02-19T02:46:29.525Z,43.50
2023-02-19T02:47:29.543Z,40.90
2023-02-19T02:48:29.557Z,42.20
2023-02-19T02:49:29.506Z,40.00
2023-02-19T02:50:29.476Z,39.20
2023-02-19T02:51:29.495Z,38.50
2023-02-19T02:52:29.481Z,38.20
2023-02-19T02:53:29.436Z,35.90
2023-02-19T02:54:29.449Z,36.40
2023-02-19T02:55:29.421Z,34.60
2023-02-19T02:56:29.374Z,36.90
2023-02-19T02:57:29.370Z,37.90
2023-02-19T02:58:29.394Z,44.90
2023-02-19T02:59:29.339Z,41.50
2023-02-19T03:00:29.328Z,35.10
2023-02-19T03:01:29.317Z,36.80
2023-02-19T03:02:29.368Z,37.40
2023-02-19T03:03:38.029Z,36.90
2023-02-19T03:04:29.279Z,38.10
2023-02-19T03:05:29.273Z,33.80
2023-02-19T03:06:29.241Z,34.10
2023-02-19T03:07:29.256Z,39.80
2023-02-19T03:08:29.213Z,36.80
2023-02-19T03:09:29.237Z,31.90
2023-02-19T03:10:29.334Z,35.20
2023-02-19T03:11:29.219Z,29.50
2023-02-19T03:12:29.188Z,32.50
2023-02-19T03:13:29.151Z,34.30
2023-02-19T03:14:29.146Z,30.50
2023-02-19T03:15:29.155Z,30.70
2023-02-19T03:16:29.221Z,32.00
2023-02-19T03:17:29.148Z,31.80
2023-02-19T03:18:29.105Z,31.80
2023-02-19T03:19:29.087Z,27.30
2023-02-19T03:20:29.092Z,31.60
2023-02-19T03:21:29.040Z,30.80
2023-02-19T03:22:29.049Z,32.00
2023-02-19T03:23:29.036Z,30.20
2023-02-19T03:24:29.045Z,31.80
2023-02-19T03:25:29.007Z,30.80
2023-02-19T03:26:28.974Z,29.60
2023-02-19T03:27:28.997Z,30.40
2023-02-19T03:28:28.964Z,32.90
2023-02-19T03:29:28.943Z,34.60
2023-02-19T03:30:28.951Z,28.80
2023-02-19T03:31:29.059Z,29.70
2023-02-19T03:32:28.937Z,33.40
2023-02-19T03:33:28.879Z,33.70
2023-02-19T03:34:28.857Z,38.30
2023-02-19T03:35:28.887Z,30.60
2023-02-19T03:36:28.894Z,32.40
2023-02-19T03:37:28.874Z,30.00
2023-02-19T03:38:28.816Z,30.10
2023-02-19T03:39:28.801Z,33.10
2023-02-19T03:40:28.804Z,28.60
2023-02-19T03:41:28.790Z,32.40
2023-02-19T03:42:28.780Z,36.70
2023-02-19T03:43:28.772Z,33.80
2023-02-19T03:44:28.726Z,32.50
2023-02-19T03:45:28.838Z,31.50
2023-02-19T03:46:28.722Z,30.90
2023-02-19T03:47:28.697Z,30.50
2023-02-19T03:48:28.684Z,29.10
2023-02-19T03:49:28.674Z,33.40
2023-02-19T03:50:28.653Z,28.80
2023-02-19T03:51:28.654Z,24.70
2023-02-19T03:52:28.616Z,25.90
2023-02-19T03:53:28.659Z,28.10
2023-02-19T03:54:28.614Z,26.60
2023-02-19T03:55:28.612Z,27.70
2023-02-19T03:56:28.553Z,26.00
2023-02-19T03:57:28.624Z,28.60
2023-02-19T03:58:28.573Z,26.90
2023-02-19T03:59:28.581Z,28.40
2023-02-19T04:00:28.505Z,29.80
2023-02-19T04:01:28.546Z,33.50
2023-02-19T04:02:28.521Z,36.70
2023-02-19T04:03:28.478Z,30.70
2023-02-19T04:04:28.467Z,27.40
2023-02-19T04:05:28.464Z,29.90
2023-02-19T04:06:28.455Z,31.40
2023-02-19T04:07:28.418Z,33.00
2023-02-19T04:08:28.406Z,28.70
2023-02-19T04:09:28.441Z,31.80
2023-02-19T04:10:28.414Z,30.70
2023-02-19T04:11:28.390Z,31.00
2023-02-19T04:12:28.345Z,30.00
2023-02-19T04:13:28.363Z,31.00
2023-02-19T04:14:28.332Z,30.90
2023-02-19T04:15:28.325Z,33.50
2023-02-19T04:16:28.341Z,31.80
2023-02-19T04:17:28.279Z,34.10
2023-02-19T04:18:28.266Z,33.60
2023-02-19T04:19:28.256Z,33.10
2023-02-19T04:20:28.240Z,30.40
2023-02-19T04:21:28.271Z,28.20
2023-02-19T04:22:28.250Z,34.50
2023-02-19T04:23:28.218Z,33.30
2023-02-19T04:24:28.187Z,35.10
2023-02-19T04:25:28.306Z,31.70
2023-02-19T04:26:28.210Z,31.90
2023-02-19T04:27:28.199Z,31.40
2023-02-19T04:28:28.153Z,35.60
2023-02-19T04:29:28.135Z,35.10
2023-02-19T04:30:28.230Z,34.20
2023-02-19T04:31:28.250Z,30.80
2023-02-19T04:32:28.137Z,31.90
2023-02-19T04:33:28.150Z,31.50
2023-02-19T04:34:28.080Z,29.00
2023-02-19T04:35:28.055Z,26.10
2023-02-19T04:36:28.024Z,22.70
2023-02-19T04:37:28.053Z,23.80
2023-02-19T04:38:28.001Z,24.40
2023-02-19T04:39:28.056Z,28.00
2023-02-19T04:40:27.982Z,24.20
2023-02-19T04:41:27.963Z,24.70
2023-02-19T04:42:27.971Z,24.60
2023-02-19T04:43:27.927Z,25.90
2023-02-19T04:44:27.903Z,24.50
2023-02-19T04:45:27.946Z,23.70
2023-02-19T04:46:27.980Z,20.80
2023-02-19T04:47:27.901Z,24.80
2023-02-19T04:48:27.888Z,22.50
2023-02-19T04:49:27.859Z,24.60
2023-02-19T04:50:27.858Z,22.30
2023-02-19T04:51:27.829Z,24.80
2023-02-19T04:52:27.848Z,23.80
2023-02-19T04:53:27.819Z,23.70
2023-02-19T04:54:27.764Z,23.10
2023-02-19T04:55:27.833Z,28.90
2023-02-19T04:56:27.753Z,27.00
2023-02-19T04:57:27.761Z,31.90
2023-02-19T04:58:27.754Z,27.40
2023-02-19T04:59:27.716Z,32.80
2023-02-19T05:00:27.699Z,29.80
2023-02-19T05:01:27.754Z,30.70
2023-02-19T05:02:27.662Z,29.30
2023-02-19T05:03:27.689Z,35.90
2023-02-19T05:04:27.693Z,32.60
2023-02-19T05:05:27.644Z,31.90
2023-02-19T05:06:27.638Z,31.20
2023-02-19T05:07:27.620Z,28.60
2023-02-19T05:08:27.604Z,31.50
2023-02-19T05:09:27.597Z,29.70
2023-02-19T05:10:27.599Z,26.60
2023-02-19T05:11:27.557Z,27.90
2023-02-19T05:12:27.534Z,35.00
2023-02-19T05:13:28.243Z,30.90
2023-02-19T05:14:27.518Z,26.30
2023-02-19T05:15:27.510Z,30.90
2023-02-19T05:16:27.505Z,29.20
2023-02-19T05:17:27.488Z,29.20
2023-02-19T05:18:27.455Z,27.10
2023-02-19T05:19:27.473Z,27.50
2023-02-19T05:20:27.424Z,29.50
2023-02-19T05:21:27.430Z,29.90
2023-02-19T05:22:27.419Z,26.80
2023-02-19T05:23:27.423Z,28.30
2023-02-19T05:24:27.411Z,26.30
2023-02-19T05:25:27.360Z,26.00
2023-02-19T05:26:27.340Z,26.90
2023-02-19T05:27:27.323Z,29.30
2023-02-19T05:28:27.336Z,27.00
2023-02-19T05:29:27.334Z,32.20
2023-02-19T05:30:27.334Z,27.60
2023-02-19T05:31:27.351Z,27.30
2023-02-19T05:32:27.250Z,28.30
2023-02-19T05:33:27.271Z,28.10
2023-02-19T05:34:27.231Z,31.80
2023-02-19T05:35:27.232Z,30.60
2023-02-19T05:36:27.197Z,28.30
2023-02-19T05:37:27.200Z,29.80
2023-02-19T05:38:27.189Z,25.10
2023-02-19T05:39:27.180Z,29.20
2023-02-19T05:40:27.301Z,27.60
2023-02-19T05:41:27.129Z,30.50
2023-02-19T05:42:27.169Z,28.20
2023-02-19T05:43:27.176Z,27.10
2023-02-19T05:44:27.131Z,28.50
2023-02-19T05:45:27.067Z,30.30
2023-02-19T05:46:27.069Z,31.30
2023-02-19T05:47:27.063Z,34.90
2023-02-19T05:48:27.085Z,31.70
2023-02-19T05:49:27.022Z,30.10
2023-02-19T05:50:27.025Z,27.00
2023-02-19T05:51:27.126Z,24.30
2023-02-19T05:52:27.004Z,19.20
2023-02-19T05:53:27.039Z,20.30
2023-02-19T05:54:26.978Z,19.80
2023-02-19T05:55:26.972Z,22.90
2023-02-19T05:56:26.969Z,24.10
2023-02-19T05:57:26.933Z,20.20
2023-02-19T05:58:26.927Z,27.40
2023-02-19T05:59:26.920Z,21.90
2023-02-19T06:00:26.907Z,22.60
2023-02-19T06:01:26.873Z,24.60
2023-02-19T06:02:26.873Z,24.70
2023-02-19T06:03:26.877Z,30.40
2023-02-19T06:04:26.835Z,29.30
2023-02-19T06:05:26.816Z,31.90
2023-02-19T06:06:26.804Z,33.50
2023-02-19T06:07:26.820Z,32.80
2023-02-19T06:08:26.785Z,36.60
2023-02-19T06:09:26.778Z,32.00
2023-02-19T06:10:26.747Z,31.60
2023-02-19T06:11:26.742Z,35.60
2023-02-19T06:12:26.836Z,34.20
2023-02-19T06:13:26.709Z,34.30
2023-02-19T06:14:26.706Z,33.40
2023-02-19T06:15:26.709Z,29.90
2023-02-19T06:16:26.774Z,28.00
2023-02-19T06:17:26.660Z,33.80
2023-02-19T06:18:26.678Z,30.50
2023-02-19T06:19:26.686Z,27.60
2023-02-19T06:20:26.658Z,29.30
2023-02-19T06:21:26.594Z,27.20
2023-02-19T06:22:26.626Z,28.00
2023-02-19T06:23:26.585Z,29.40
2023-02-19T06:24:26.572Z,30.00
2023-02-19T06:25:26.541Z,35.60
2023-02-19T06:26:26.581Z,33.00
2023-02-19T06:27:26.508Z,35.60
2023-02-19T06:28:26.539Z,30.40
2023-02-19T06:29:26.489Z,35.50
2023-02-19T06:30:26.519Z,36.00
2023-02-19T06:31:26.493Z,33.00
2023-02-19T06:32:26.551Z,31.10
2023-02-19T06:33:26.494Z,33.20
2023-02-19T06:34:26.478Z,33.20
2023-02-19T06:35:26.425Z,29.80
2023-02-19T06:36:26.432Z,35.10
2023-02-19T06:37:26.438Z,29.90
2023-02-19T06:38:26.385Z,28.80
2023-02-19T06:39:26.388Z,28.60
2023-02-19T06:40:26.369Z,27.50
2023-02-19T06:41:26.355Z,29.50
2023-02-19T06:42:26.467Z,24.10
2023-02-19T06:43:26.317Z,25.30
2023-02-19T06:44:26.316Z,25.30
2023-02-19T06:45:26.311Z,24.80
2023-02-19T06:46:26.320Z,22.90
2023-02-19T06:47:26.332Z,26.10
2023-02-19T06:48:26.236Z,24.50
2023-02-19T06:49:26.237Z,30.70
2023-02-19T06:50:26.239Z,28.50
2023-02-19T06:51:26.242Z,28.20
2023-02-19T06:52:26.307Z,25.20
2023-02-19T06:53:26.187Z,27.10
2023-02-19T06:54:26.193Z,28.50
2023-02-19T06:55:26.179Z,27.60
2023-02-19T06:56:26.262Z,26.10
2023-02-19T06:57:26.138Z,30.30
2023-02-19T06:58:26.115Z,27.90
2023-02-19T06:59:26.110Z,26.00
2023-02-19T07:00:26.090Z,25.40
2023-02-19T07:01:26.080Z,22.40
2023-02-19T07:02:26.100Z,23.60
2023-02-19T07:03:26.097Z,22.20
2023-02-19T07:04:26.114Z,22.30
2023-02-19T07:05:26.019Z,21.50
2023-02-19T07:06:26.032Z,22.40
2023-02-19T07:07:25.998Z,19.10
2023-02-19T07:08:29.320Z,21.90
2023-02-19T07:09:26.010Z,21.50
2023-02-19T07:10:25.974Z,22.90
2023-02-19T07:11:25.960Z,21.60
2023-02-19T07:12:25.995Z,18.10
2023-02-19T07:13:25.909Z,20.40
2023-02-19T07:14:25.924Z,16.90
2023-02-19T07:15:25.895Z,20.70
2023-02-19T07:16:25.939Z,19.80
2023-02-19T07:17:25.915Z,18.50
2023-02-19T07:18:25.836Z,19.80
2023-02-19T07:19:25.858Z,20.20
2023-02-19T07:20:25.824Z,17.00
2023-02-19T07:21:25.865Z,20.10
2023-02-19T07:22:25.829Z,17.60
2023-02-19T07:23:25.789Z,20.30
2023-02-19T07:24:25.759Z,22.00
2023-02-19T07:25:25.778Z,20.50
2023-02-19T07:26:25.741Z,23.40
2023-02-19T07:27:25.720Z,18.60
2023-02-19T07:28:25.735Z,16.30
2023-02-19T07:29:25.702Z,18.90
2023-02-19T07:30:25.736Z,18.90
2023-02-19T07:31:25.887Z,20.00
2023-02-19T07:32:25.652Z,20.60
2023-02-19T07:33:25.667Z,18.90
2023-02-19T07:34:25.684Z,22.10
2023-02-19T07:35:25.612Z,20.90
2023-02-19T07:36:25.610Z,22.30
2023-02-19T07:37:25.613Z,20.20
2023-02-19T07:38:25.583Z,18.10
2023-02-19T07:39:25.611Z,18.70
2023-02-19T07:40:25.554Z,17.20
2023-02-19T07:41:25.583Z,19.20
2023-02-19T07:42:25.538Z,21.80
2023-02-19T07:43:25.525Z,21.70
2023-02-19T07:44:25.515Z,17.00
2023-02-19T07:45:25.558Z,19.90
2023-02-19T07:46:25.524Z,21.60
2023-02-19T07:47:25.486Z,21.70
2023-02-19T07:48:25.477Z,22.70
2023-02-19T07:49:25.444Z,22.80
2023-02-19T07:50:25.476Z,21.00
2023-02-19T07:51:25.443Z,22.40
2023-02-19T07:52:25.417Z,22.70
2023-02-19T07:53:25.410Z,23.10
2023-02-19T07:54:25.434Z,21.90
2023-02-19T07:55:25.368Z,24.90
2023-02-19T07:56:25.372Z,24.80
2023-02-19T07:57:25.312Z,23.60
2023-02-19T07:58:25.302Z,23.30
2023-02-19T07:59:25.298Z,25.40
2023-02-19T08:00:25.296Z,22.60
2023-02-19T08:01:25.301Z,24.20
2023-02-19T08:02:25.284Z,22.90
2023-02-19T08:03:25.277Z,22.20
2023-02-19T08:04:25.237Z,26.10
2023-02-19T08:05:25.214Z,21.50
2023-02-19T08:06:25.225Z,23.80
2023-02-19T08:07:25.234Z,21.00
2023-02-19T08:08:25.205Z,23.30
2023-02-19T08:09:25.176Z,23.60
2023-02-19T08:10:25.146Z,25.80
2023-02-19T08:11:25.155Z,22.10
2023-02-19T08:12:25.163Z,24.20
2023-02-19T08:13:25.099Z,21.70
2023-02-19T08:14:25.106Z,26.10
2023-02-19T08:15:25.091Z,22.90
2023-02-19T08:16:40.806Z,22.50
2023-02-19T08:17:26.154Z,22.60
2023-02-19T08:18:25.089Z,22.20
2023-02-19T08:19:25.034Z,21.00
2023-02-19T08:20:25.044Z,18.20
2023-02-19T08:21:24.996Z,22.50
2023-02-19T08:22:25.027Z,21.60
2023-02-19T08:23:24.966Z,20.60
2023-02-19T08:24:24.990Z,20.00
2023-02-19T08:25:24.956Z,23.00
2023-02-19T08:26:24.921Z,20.90
2023-02-19T08:27:24.920Z,24.40
2023-02-19T08:28:24.919Z,20.80
2023-02-19T08:29:24.944Z,21.20
2023-02-19T08:30:24.998Z,23.00
2023-02-19T08:31:24.917Z,19.30
2023-02-19T08:32:24.865Z,21.60
2023-02-19T08:33:24.823Z,20.60
2023-02-19T08:34:24.851Z,22.70
2023-02-19T08:35:24.902Z,19.50
2023-02-19T08:36:24.806Z,20.50
2023-02-19T08:37:24.787Z,18.80
2023-02-19T08:38:24.768Z,18.50
2023-02-19T08:39:24.780Z,22.30
2023-02-19T08:40:24.883Z,23.10
2023-02-19T08:41:24.722Z,19.00
2023-02-19T08:42:24.711Z,21.30
2023-02-19T08:43:24.948Z,21.20
2023-02-19T08:44:25.135Z,22.20
2023-02-19T08:45:24.665Z,20.30
2023-02-19T08:46:24.804Z,18.90
2023-02-19T08:47:24.835Z,19.20
2023-02-19T08:48:24.634Z,17.10
2023-02-19T08:49:24.673Z,18.20
2023-02-19T08:50:24.659Z,17.30
2023-02-19T08:51:24.580Z,17.00
2023-02-19T08:52:24.604Z,17.30
2023-02-19T08:53:24.620Z,17.10
2023-02-19T08:54:24.530Z,19.80
2023-02-19T08:55:24.560Z,20.20
2023-02-19T08:56:24.569Z,19.20
2023-02-19T08:57:24.522Z,21.10
2023-02-19T08:58:24.518Z,18.60
2023-02-19T08:59:24.692Z,19.50
2023-02-19T09:00:24.495Z,20.30
2023-02-19T09:01:24.481Z,19.40
2023-02-19T09:02:24.460Z,19.60
2023-02-19T09:03:24.424Z,17.60
2023-02-19T09:04:24.425Z,19.60
2023-02-19T09:05:24.382Z,21.40
2023-02-19T09:06:24.382Z,18.70
2023-02-19T09:07:24.622Z,17.10
2023-02-19T09:08:24.410Z,18.10
2023-02-19T09:09:24.346Z,21.00
2023-02-19T09:10:24.323Z,20.30
2023-02-19T09:11:24.364Z,16.20
2023-02-19T09:12:24.274Z,17.00
2023-02-19T09:13:24.304Z,14.90
2023-02-19T09:14:24.299Z,16.00
2023-02-19T09:15:24.252Z,15.90
2023-02-19T09:16:24.252Z,16.40
2023-02-19T09:17:24.213Z,15.90
2023-02-19T09:18:24.212Z,12.60
2023-02-19T09:19:24.247Z,13.60
2023-02-19T09:20:24.186Z,12.30
2023-02-19T09:21:24.200Z,13.80
2023-02-19T09:22:24.149Z,14.70
2023-02-19T09:23:24.142Z,16.00
2023-02-19T09:24:24.138Z,13.40
2023-02-19T09:25:24.140Z,13.80
2023-02-19T09:26:24.131Z,11.20
2023-02-19T09:27:24.095Z,11.10
2023-02-19T09:28:24.087Z,12.90
2023-02-19T09:29:24.044Z,15.60
2023-02-19T09:30:24.077Z,19.20
2023-02-19T09:31:24.129Z,15.00
2023-02-19T09:32:24.008Z,14.20
2023-02-19T09:33:23.979Z,17.60
2023-02-19T09:34:24.037Z,16.10
2023-02-19T09:35:23.992Z,15.80
2023-02-19T09:36:24.003Z,17.30
2023-02-19T09:37:23.938Z,16.80
2023-02-19T09:38:23.943Z,16.40
2023-02-19T09:39:23.920Z,16.00
2023-02-19T09:40:23.911Z,15.80
2023-02-19T09:41:23.930Z,15.50
2023-02-19T09:42:24.618Z,14.80
2023-02-19T09:43:24.019Z,14.30
2023-02-19T09:44:23.894Z,16.10
2023-02-19T09:45:23.841Z,13.80
2023-02-19T09:46:23.897Z,12.90
2023-02-19T09:47:23.832Z,10.50
2023-02-19T09:48:23.833Z,11.30
2023-02-19T09:49:25.744Z,8.90
2023-02-19T09:50:23.812Z,9.90
2023-02-19T09:51:23.764Z,10.00
2023-02-19T09:52:23.724Z,12.10
2023-02-19T09:53:23.762Z,9.90
2023-02-19T09:54:23.735Z,11.20
2023-02-19T09:55:23.757Z,8.10
2023-02-19T09:56:23.687Z,9.20
2023-02-19T09:57:23.685Z,7.10
2023-02-19T09:58:23.651Z,8.20
2023-02-19T09:59:23.645Z,9.00
2023-02-19T10:00:23.613Z,7.80
2023-02-19T10:01:23.596Z,8.00
2023-02-19T10:02:23.585Z,10.00
2023-02-19T10:03:23.603Z,9.60
2023-02-19T10:04:23.545Z,5.20
2023-02-19T10:05:23.629Z,7.80
2023-02-19T10:06:23.574Z,6.90
2023-02-19T10:07:23.509Z,8.30
2023-02-19T10:08:23.497Z,8.20
2023-02-19T10:09:23.490Z,5.10
2023-02-19T10:10:23.522Z,6.70
2023-02-19T10:11:23.458Z,7.20
2023-02-19T10:12:23.421Z,5.60
2023-02-19T10:13:23.468Z,6.50
2023-02-19T10:14:23.405Z,6.80
2023-02-19T10:15:23.406Z,8.60
2023-02-19T10:16:23.436Z,5.40
2023-02-19T10:17:23.380Z,6.50
2023-02-19T10:18:23.341Z,6.40
2023-02-19T10:19:23.338Z,6.10
2023-02-19T10:20:23.306Z,5.80
2023-02-19T10:21:23.505Z,8.60
2023-02-19T10:22:23.295Z,7.30
2023-02-19T10:23:23.262Z,7.10
2023-02-19T10:24:23.283Z,6.40
2023-02-19T10:25:23.254Z,6.60
2023-02-19T10:26:23.236Z,6.80
2023-02-19T10:27:23.255Z,6.50
2023-02-19T10:28:23.201Z,9.00
2023-02-19T10:29:23.224Z,7.40
2023-02-19T10:30:23.226Z,6.00
2023-02-19T10:31:23.237Z,6.40
2023-02-19T10:32:23.164Z,6.90
2023-02-19T10:33:23.137Z,7.00
2023-02-19T10:34:23.167Z,5.00
2023-02-19T10:35:23.103Z,7.20
2023-02-19T10:36:23.093Z,6.10
2023-02-19T10:37:23.124Z,5.90
2023-02-19T10:38:23.095Z,7.20
2023-02-19T10:39:23.083Z,6.00
2023-02-19T10:40:23.061Z,4.80
2023-02-19T10:41:23.047Z,5.80
2023-02-19T10:42:22.994Z,5.30
2023-02-19T10:43:22.979Z,4.80
2023-02-19T10:44:22.992Z,4.70
2023-02-19T10:45:23.019Z,5.80
2023-02-19T10:46:23.059Z,6.10
2023-02-19T10:47:22.957Z,6.80
2023-02-19T10:48:22.987Z,4.80
2023-02-19T10:49:22.917Z,5.10
2023-02-19T10:50:22.882Z,6.10
2023-02-19T10:51:22.872Z,4.60
2023-02-19T10:52:22.874Z,4.60
2023-02-19T10:53:22.980Z,6.00
2023-02-19T10:54:22.824Z,3.90
2023-02-19T10:55:22.810Z,4.80
2023-02-19T10:56:22.790Z,4.40
2023-02-19T10:57:22.805Z,4.90
2023-02-19T10:58:22.794Z,7.20
2023-02-19T10:59:22.814Z,7.40
2023-02-19T11:00:22.869Z,5.80
2023-02-19T11:01:22.793Z,5.30
2023-02-19T11:02:22.720Z,4.80
2023-02-19T11:03:22.729Z,4.70
2023-02-19T11:04:22.731Z,4.80
2023-02-19T11:05:22.685Z,4.40
2023-02-19T11:06:22.670Z,4.30
2023-02-19T11:07:22.686Z,4.20
2023-02-19T11:08:22.634Z,5.90
2023-02-19T11:09:22.620Z,5.70
2023-02-19T11:10:22.596Z,6.70
2023-02-19T11:11:22.614Z,6.40
2023-02-19T11:12:22.589Z,6.10
2023-02-19T11:13:22.546Z,6.40
2023-02-19T11:14:22.545Z,5.60
2023-02-19T11:15:22.571Z,6.20
2023-02-19T11:16:22.536Z,7.30
2023-02-19T11:17:22.542Z,4.00
2023-02-19T11:18:22.492Z,6.60
2023-02-19T11:19:22.638Z,6.20
2023-02-19T11:20:22.449Z,5.60
2023-02-19T11:21:22.468Z,6.20
2023-02-19T11:22:22.425Z,4.90
2023-02-19T11:23:22.454Z,7.20
2023-02-19T11:24:22.405Z,4.40
2023-02-19T11:25:22.421Z,4.50
2023-02-19T11:26:22.458Z,5.50
2023-02-19T11:27:22.350Z,4.50
2023-02-19T11:28:22.346Z,6.70
2023-02-19T11:29:22.329Z,4.00
2023-02-19T11:30:22.317Z,4.60
2023-02-19T11:31:22.425Z,4.00
2023-02-19T11:32:22.366Z,3.50
2023-02-19T11:33:22.331Z,3.30
2023-02-19T11:34:22.267Z,3.00
2023-02-19T11:35:22.228Z,3.40
2023-02-19T11:36:22.245Z,3.00
2023-02-19T11:37:22.235Z,3.00
2023-02-19T11:38:22.189Z,1.90
2023-02-19T11:39:22.210Z,2.80
2023-02-19T11:40:22.165Z,4.40
2023-02-19T11:41:22.209Z,2.90
2023-02-19T11:42:22.177Z,4.30
2023-02-19T11:43:22.131Z,2.90
2023-02-19T11:44:22.107Z,2.30
2023-02-19T11:45:22.137Z,3.10
2023-02-19T11:46:22.158Z,2.60
2023-02-19T11:47:22.102Z,3.10
2023-02-19T11:48:22.082Z,3.50
2023-02-19T11:49:22.069Z,4.20
2023-02-19T11:50:22.046Z,5.00
2023-02-19T11:51:22.108Z,3.60
2023-02-19T11:52:22.021Z,4.80
2023-02-19T11:53:22.011Z,3.70
2023-02-19T11:54:21.969Z,3.80
2023-02-19T11:55:22.007Z,4.10
2023-02-19T11:56:21.955Z,4.40
2023-02-19T11:57:22.018Z,4.70
2023-02-19T11:58:21.919Z,4.90
2023-02-19T11:59:21.978Z,2.60
2023-02-19T12:00:21.892Z,2.50
2023-02-19T12:01:21.882Z,3.00
2023-02-19T12:02:21.890Z,2.10
2023-02-19T12:03:21.868Z,2.60
2023-02-19T12:04:21.862Z,2.40
2023-02-19T12:05:21.871Z,3.70
2023-02-19T12:06:21.817Z,2.10
2023-02-19T12:07:23.143Z,2.90
2023-02-19T12:08:21.800Z,3.10
2023-02-19T12:09:21.774Z,3.30
2023-02-19T12:10:21.753Z,2.50
2023-02-19T12:11:21.733Z,3.70
2023-02-19T12:12:21.733Z,2.40
2023-02-19T12:13:21.733Z,3.30
2023-02-19T12:14:21.851Z,2.40
2023-02-19T12:15:21.677Z,4.10
2023-02-19T12:16:21.744Z,2.60
2023-02-19T12:17:21.709Z,2.30
2023-02-19T12:18:21.633Z,2.40
2023-02-19T12:19:21.637Z,3.70
2023-02-19T12:20:21.621Z,3.60
2023-02-19T12:21:21.621Z,3.80
2023-02-19T12:22:21.586Z,2.20
2023-02-19T12:23:21.565Z,3.00
2023-02-19T12:24:30.201Z,3.40
2023-02-19T12:25:21.552Z,1.90
2023-02-19T12:26:21.553Z,2.20
2023-02-19T12:27:21.508Z,2.20
2023-02-19T12:28:21.484Z,2.40
2023-02-19T12:29:21.522Z,3.00
2023-02-19T12:30:21.487Z,3.10
2023-02-19T12:31:21.564Z,2.20
2023-02-19T12:32:21.435Z,1.90
2023-02-19T12:33:21.428Z,1.50
2023-02-19T12:34:21.395Z,1.80
2023-02-19T12:35:22.177Z,2.60
2023-02-19T12:36:21.363Z,2.00
2023-02-19T12:37:21.384Z,1.80
2023-02-19T12:38:21.364Z,3.30
2023-02-19T12:39:21.330Z,2.00
2023-02-19T12:40:21.339Z,2.10
2023-02-19T12:41:21.316Z,2.00
2023-02-19T12:42:21.356Z,1.60
2023-02-19T12:43:21.298Z,1.50
2023-02-19T12:44:21.271Z,1.50
2023-02-19T12:45:21.257Z,1.60
2023-02-19T12:46:21.270Z,0.60
2023-02-19T12:47:21.214Z,1.10
2023-02-19T12:48:21.346Z,1.30
2023-02-19T12:49:21.192Z,1.50
2023-02-19T12:50:21.201Z,1.70
2023-02-19T12:51:21.175Z,1.10
2023-02-19T12:52:21.151Z,1.80
2023-02-19T12:53:21.141Z,2.00
2023-02-19T12:54:21.135Z,2.60
2023-02-19T12:55:21.173Z,3.80
2023-02-19T12:56:21.107Z,3.30
2023-02-19T12:57:21.127Z,3.90
2023-02-19T12:58:21.855Z,4.90